Attleborough, United Kingdom
Current Conditions -  °F | °C
As of 12:20 AM on Monday 26 Jan 2015 (Local Time) from EGSH Reporting Station
Broken Clouds Broken Clouds  
Wind Chill: 39°   Ceiling: 800
Heat Index: 45°   Visibility: 6mi
Dew Point: 43°   Wind: 12mph
Humidity: 93%   Direction: 240°WSW
Pressure: 30.18"   Gusts: NA
Location:  52.51°N, 1°E
Report Text: EGSH 260020Z AUTO 24010KT 9999 BKN008/// BKN012/// 07/06 Q1022
Loading
Personal Weather Stations






























Interactive Weather Map New forecast layout! Learn more

10-Day Weather Forecast

Advertisements
Track Severe Weather on mobile